Main page
METAR-TAF:

METAR-TAF

Airports :

Funchal, Madeira, Portugal

Madeira Airport

latitude: 32-41-52N, longitude: 016-46-28W, elevation: 59 m

Current weather observation

The report was made 30 minutes ago, at 11:30 UTC
Wind 18 kt from the North/Northeast
Temperature 25°C
Humidity 57%
Pressure 1017 hPa
Visibility 10 km or more
Few clouds at a height of 1500 ft

METAR: LPMA 261130Z 03018KT 9999 FEW015 25/16 Q1017

Time: 13:00 (12:00 UTC)


TAF: missing

Weather observations and forecasts of more than 4000 airports (METAR and TAF reports).

The available stations are represented by yellow and red dots on the map.

Hover mouse over dot to see the name of the station.

Then click to see weather observations and forecasts.

To change the map : click on the green buttons with a black cross to zoom in, on the green button with a dash to zoom out, or on the green arrows for adjacent maps.


METAR-TAF: